sensor_id;sensor_type;location;lat;lon;timestamp;pressure;altitude;pressure_sealevel;temperature;humidity
13486;BME280;6815;59.336;17.998;2023-01-31T00:01:36;52250.84;;;-145.37;56.90
13486;BME280;6815;59.336;17.998;2023-01-31T00:04:05;52258.84;;;-145.37;57.60
13486;BME280;6815;59.336;17.998;2023-01-31T00:06:33;52258.84;;;-145.37;56.93
13486;BME280;6815;59.336;17.998;2023-01-31T00:09:00;52290.78;;;-145.37;57.33
13486;BME280;6815;59.336;17.998;2023-01-31T00:11:27;52248.84;;;-145.37;57.25
13486;BME280;6815;59.336;17.998;2023-01-31T00:13:54;52226.91;;;-145.37;57.45
13486;BME280;6815;59.336;17.998;2023-01-31T00:16:21;52300.75;;;-145.37;57.29
13486;BME280;6815;59.336;17.998;2023-01-31T00:18:47;52246.84;;;-145.37;58.07
13486;BME280;6815;59.336;17.998;2023-01-31T00:21:20;52220.91;;;-145.37;58.71
13486;BME280;6815;59.336;17.998;2023-01-31T00:23:47;52262.81;;;-145.37;58.62
13486;BME280;6815;59.336;17.998;2023-01-31T00:26:16;52264.81;;;-145.37;58.39
13486;BME280;6815;59.336;17.998;2023-01-31T00:28:42;52294.75;;;-145.37;58.74
13486;BME280;6815;59.336;17.998;2023-01-31T00:31:09;52240.88;;;-145.37;58.21
13486;BME280;6815;59.336;17.998;2023-01-31T00:33:38;52244.84;;;-145.37;58.10
13486;BME280;6815;59.336;17.998;2023-01-31T00:36:12;52294.75;;;-145.37;58.06
13486;BME280;6815;59.336;17.998;2023-01-31T00:38:38;52282.78;;;-145.37;58.39
13486;BME280;6815;59.336;17.998;2023-01-31T00:41:04;52254.84;;;-145.37;58.22
13486;BME280;6815;59.336;17.998;2023-01-31T00:43:30;52252.84;;;-145.37;57.89
13486;BME280;6815;59.336;17.998;2023-01-31T00:45:56;52254.84;;;-145.37;57.58
13486;BME280;6815;59.336;17.998;2023-01-31T00:48:22;52260.84;;;-145.37;57.68
13486;BME280;6815;59.336;17.998;2023-01-31T00:50:47;52258.84;;;-145.37;58.13
13486;BME280;6815;59.336;17.998;2023-01-31T00:53:13;52248.84;;;-145.37;58.32
13486;BME280;6815;59.336;17.998;2023-01-31T00:55:38;52232.88;;;-145.37;58.07
13486;BME280;6815;59.336;17.998;2023-01-31T00:58:04;52260.84;;;-145.37;58.28
13486;BME280;6815;59.336;17.998;2023-01-31T01:00:31;52222.91;;;-145.37;58.47
13486;BME280;6815;59.336;17.998;2023-01-31T01:02:57;52272.81;;;-145.37;58.55
13486;BME280;6815;59.336;17.998;2023-01-31T01:05:23;52224.91;;;-145.37;58.66
13486;BME280;6815;59.336;17.998;2023-01-31T01:07:48;52266.81;;;-145.37;58.44
13486;BME280;6815;59.336;17.998;2023-01-31T01:10:14;52244.84;;;-145.37;58.15
13486;BME280;6815;59.336;17.998;2023-01-31T01:12:40;52262.81;;;-145.37;58.10
13486;BME280;6815;59.336;17.998;2023-01-31T01:15:05;52256.84;;;-145.37;58.10
13486;BME280;6815;59.336;17.998;2023-01-31T01:17:31;52248.84;;;-145.37;58.33
13486;BME280;6815;59.336;17.998;2023-01-31T01:19:57;52256.84;;;-145.37;58.26
13486;BME280;6815;59.336;17.998;2023-01-31T01:22:22;52266.81;;;-145.37;58.64
13486;BME280;6815;59.336;17.998;2023-01-31T01:24:47;52220.91;;;-145.37;58.64
13486;BME280;6815;59.336;17.998;2023-01-31T01:27:13;52274.81;;;-145.37;58.41
13486;BME280;6815;59.336;17.998;2023-01-31T01:29:39;52240.88;;;-145.37;58.34
13486;BME280;6815;59.336;17.998;2023-01-31T01:32:05;52240.88;;;-145.37;58.41
13486;BME280;6815;59.336;17.998;2023-01-31T01:34:32;52260.84;;;-145.37;59.25
13486;BME280;6815;59.336;17.998;2023-01-31T01:36:58;52192.97;;;-145.37;58.34
13486;BME280;6815;59.336;17.998;2023-01-31T01:39:23;52240.88;;;-145.37;58.66
13486;BME280;6815;59.336;17.998;2023-01-31T01:41:50;52264.81;;;-145.37;58.75
13486;BME280;6815;59.336;17.998;2023-01-31T01:44:54;52266.81;;;-145.37;59.04
13486;BME280;6815;59.336;17.998;2023-01-31T01:52:35;52304.75;;;-145.37;58.71
13486;BME280;6815;59.336;17.998;2023-01-31T01:55:11;52242.88;;;-145.37;59.43
13486;BME280;6815;59.336;17.998;2023-01-31T01:57:41;52264.81;;;-145.37;59.86
13486;BME280;6815;59.336;17.998;2023-01-31T02:00:18;52248.84;;;-145.37;60.04
13486;BME280;6815;59.336;17.998;2023-01-31T02:02:45;52222.91;;;-145.37;59.48
13486;BME280;6815;59.336;17.998;2023-01-31T02:05:15;52270.81;;;-145.37;59.36
13486;BME280;6815;59.336;17.998;2023-01-31T02:07:41;52232.88;;;-145.37;59.67
13486;BME280;6815;59.336;17.998;2023-01-31T02:10:14;52268.81;;;-145.37;60.40
13486;BME280;6815;59.336;17.998;2023-01-31T02:12:43;52262.81;;;-145.37;60.74
13486;BME280;6815;59.336;17.998;2023-01-31T02:15:09;52250.84;;;-145.37;60.66
13486;BME280;6815;59.336;17.998;2023-01-31T02:17:35;52276.81;;;-145.37;60.69
13486;BME280;6815;59.336;17.998;2023-01-31T02:27:30;52240.88;;;-145.37;61.00
13486;BME280;6815;59.336;17.998;2023-01-31T02:35:45;52242.88;;;-145.37;60.66
13486;BME280;6815;59.336;17.998;2023-01-31T02:41:27;52270.81;;;-145.37;60.98
13486;BME280;6815;59.336;17.998;2023-01-31T02:44:04;52242.88;;;-145.37;61.12
13486;BME280;6815;59.336;17.998;2023-01-31T02:47:09;52240.88;;;-145.37;60.77
13486;BME280;6815;59.336;17.998;2023-01-31T02:50:10;52252.84;;;-145.37;61.26
13486;BME280;6815;59.336;17.998;2023-01-31T02:55:35;52228.88;;;-145.37;60.91
13486;BME280;6815;59.336;17.998;2023-01-31T02:58:21;52254.84;;;-145.37;61.21
13486;BME280;6815;59.336;17.998;2023-01-31T03:00:49;52244.84;;;-145.37;61.15
13486;BME280;6815;59.336;17.998;2023-01-31T03:03:28;52268.81;;;-145.37;60.87
13486;BME280;6815;59.336;17.998;2023-01-31T03:06:37;52250.84;;;-145.37;60.96
13486;BME280;6815;59.336;17.998;2023-01-31T03:09:03;52292.78;;;-145.37;60.86
13486;BME280;6815;59.336;17.998;2023-01-31T03:16:53;52228.88;;;-145.37;60.88
13486;BME280;6815;59.336;17.998;2023-01-31T03:20:14;52234.88;;;-145.37;61.21
13486;BME280;6815;59.336;17.998;2023-01-31T03:22:48;52258.84;;;-145.37;61.76
13486;BME280;6815;59.336;17.998;2023-01-31T03:25:17;52270.81;;;-145.37;61.88
13486;BME280;6815;59.336;17.998;2023-01-31T03:27:49;52284.78;;;-145.37;61.62
13486;BME280;6815;59.336;17.998;2023-01-31T03:30:22;52224.91;;;-145.37;61.34
13486;BME280;6815;59.336;17.998;2023-01-31T03:33:24;52254.84;;;-145.37;61.77
13486;BME280;6815;59.336;17.998;2023-01-31T03:36:36;52246.84;;;-145.37;61.73
13486;BME280;6815;59.336;17.998;2023-01-31T03:42:04;52210.91;;;-145.37;61.96
13486;BME280;6815;59.336;17.998;2023-01-31T03:47:20;52224.91;;;-145.37;61.85
13486;BME280;6815;59.336;17.998;2023-01-31T03:49:49;52292.78;;;-145.37;62.21
13486;BME280;6815;59.336;17.998;2023-01-31T03:52:19;52256.84;;;-145.37;62.02
13486;BME280;6815;59.336;17.998;2023-01-31T03:54:59;52238.88;;;-145.37;61.40
13486;BME280;6815;59.336;17.998;2023-01-31T03:57:34;52264.81;;;-145.37;62.03
13486;BME280;6815;59.336;17.998;2023-01-31T04:00:03;52268.81;;;-145.37;62.65
13486;BME280;6815;59.336;17.998;2023-01-31T04:02:33;52280.78;;;-145.37;62.95
13486;BME280;6815;59.336;17.998;2023-01-31T04:07:28;52232.88;;;-145.37;62.43
13486;BME280;6815;59.336;17.998;2023-01-31T04:09:54;52260.84;;;-145.37;62.43
13486;BME280;6815;59.336;17.998;2023-01-31T04:12:19;52260.84;;;-145.37;61.81
13486;BME280;6815;59.336;17.998;2023-01-31T04:14:45;52234.88;;;-145.37;62.13
13486;BME280;6815;59.336;17.998;2023-01-31T04:17:10;52240.88;;;-145.37;61.65
13486;BME280;6815;59.336;17.998;2023-01-31T04:19:36;52252.84;;;-145.37;62.03
13486;BME280;6815;59.336;17.998;2023-01-31T04:22:01;52254.84;;;-145.37;62.03
13486;BME280;6815;59.336;17.998;2023-01-31T04:24:27;52232.88;;;-145.37;62.18
13486;BME280;6815;59.336;17.998;2023-01-31T04:26:52;52264.81;;;-145.37;62.00
13486;BME280;6815;59.336;17.998;2023-01-31T04:29:18;52268.81;;;-145.37;62.53
13486;BME280;6815;59.336;17.998;2023-01-31T04:31:43;52276.81;;;-145.37;62.55
13486;BME280;6815;59.336;17.998;2023-01-31T04:34:09;52280.78;;;-145.37;62.45
13486;BME280;6815;59.336;17.998;2023-01-31T04:36:34;52250.84;;;-145.37;62.48
13486;BME280;6815;59.336;17.998;2023-01-31T04:39:00;52278.78;;;-145.37;62.75
13486;BME280;6815;59.336;17.998;2023-01-31T04:41:26;52264.81;;;-145.37;62.81
13486;BME280;6815;59.336;17.998;2023-01-31T04:43:51;52230.88;;;-145.37;62.94
13486;BME280;6815;59.336;17.998;2023-01-31T04:46:17;52264.81;;;-145.37;62.79
13486;BME280;6815;59.336;17.998;2023-01-31T04:48:42;52272.81;;;-145.37;62.95
13486;BME280;6815;59.336;17.998;2023-01-31T04:51:08;52254.84;;;-145.37;63.11
13486;BME280;6815;59.336;17.998;2023-01-31T04:53:34;52264.81;;;-145.37;62.99
13486;BME280;6815;59.336;17.998;2023-01-31T04:55:59;52258.84;;;-145.37;63.21
13486;BME280;6815;59.336;17.998;2023-01-31T04:58:25;52238.88;;;-145.37;62.75
13486;BME280;6815;59.336;17.998;2023-01-31T05:00:52;52240.88;;;-145.37;62.87
13486;BME280;6815;59.336;17.998;2023-01-31T05:03:18;52240.88;;;-145.37;62.37
13486;BME280;6815;59.336;17.998;2023-01-31T05:05:43;52278.78;;;-145.37;62.32
13486;BME280;6815;59.336;17.998;2023-01-31T05:08:09;52246.84;;;-145.37;62.86
13486;BME280;6815;59.336;17.998;2023-01-31T05:10:34;52266.81;;;-145.37;63.08
13486;BME280;6815;59.336;17.998;2023-01-31T05:13:00;52248.84;;;-145.37;63.14
13486;BME280;6815;59.336;17.998;2023-01-31T05:15:26;52240.88;;;-145.37;63.17
13486;BME280;6815;59.336;17.998;2023-01-31T05:17:52;52270.81;;;-145.37;63.13
13486;BME280;6815;59.336;17.998;2023-01-31T05:20:18;52258.84;;;-145.37;62.72
13486;BME280;6815;59.336;17.998;2023-01-31T05:22:47;52234.88;;;-145.37;63.47
13486;BME280;6815;59.336;17.998;2023-01-31T05:25:13;52226.91;;;-145.37;63.38
13486;BME280;6815;59.336;17.998;2023-01-31T05:27:39;52244.84;;;-145.37;63.77
13486;BME280;6815;59.336;17.998;2023-01-31T05:30:05;52204.94;;;-145.37;63.25
13486;BME280;6815;59.336;17.998;2023-01-31T05:32:38;52220.91;;;-145.37;63.53
13486;BME280;6815;59.336;17.998;2023-01-31T05:35:04;52234.88;;;-145.37;63.23
13486;BME280;6815;59.336;17.998;2023-01-31T05:37:30;52268.81;;;-145.37;63.65
13486;BME280;6815;59.336;17.998;2023-01-31T05:39:55;52258.84;;;-145.37;63.45
13486;BME280;6815;59.336;17.998;2023-01-31T05:42:21;52262.81;;;-145.37;63.10
13486;BME280;6815;59.336;17.998;2023-01-31T05:44:46;52232.88;;;-145.37;63.45
13486;BME280;6815;59.336;17.998;2023-01-31T05:47:12;52224.91;;;-145.37;63.59
13486;BME280;6815;59.336;17.998;2023-01-31T05:49:38;52288.78;;;-145.37;62.99
13486;BME280;6815;59.336;17.998;2023-01-31T05:52:03;52250.84;;;-145.37;62.88
13486;BME280;6815;59.336;17.998;2023-01-31T05:54:28;52282.78;;;-145.37;62.71
13486;BME280;6815;59.336;17.998;2023-01-31T05:56:54;52254.84;;;-145.37;62.09
13486;BME280;6815;59.336;17.998;2023-01-31T05:59:19;52250.84;;;-145.37;62.21
13486;BME280;6815;59.336;17.998;2023-01-31T06:01:45;52238.88;;;-145.37;61.70
13486;BME280;6815;59.336;17.998;2023-01-31T06:04:10;52240.88;;;-145.37;62.48
13486;BME280;6815;59.336;17.998;2023-01-31T06:06:36;52272.81;;;-145.37;62.24
13486;BME280;6815;59.336;17.998;2023-01-31T06:09:01;52228.88;;;-145.37;61.32
13486;BME280;6815;59.336;17.998;2023-01-31T06:11:27;52256.84;;;-145.37;61.23
13486;BME280;6815;59.336;17.998;2023-01-31T06:13:52;52230.88;;;-145.37;61.37
13486;BME280;6815;59.336;17.998;2023-01-31T06:16:22;52246.84;;;-145.37;61.40
13486;BME280;6815;59.336;17.998;2023-01-31T06:18:47;52228.88;;;-145.37;61.32
13486;BME280;6815;59.336;17.998;2023-01-31T06:21:13;52216.91;;;-145.37;61.75
13486;BME280;6815;59.336;17.998;2023-01-31T06:23:40;52292.78;;;-145.37;61.69
13486;BME280;6815;59.336;17.998;2023-01-31T06:26:10;52254.84;;;-145.37;61.51
13486;BME280;6815;59.336;17.998;2023-01-31T06:28:36;52230.88;;;-145.37;61.45
13486;BME280;6815;59.336;17.998;2023-01-31T06:31:08;52240.88;;;-145.37;61.32
13486;BME280;6815;59.336;17.998;2023-01-31T06:33:34;52256.84;;;-145.37;61.54
13486;BME280;6815;59.336;17.998;2023-01-31T06:36:00;52284.78;;;-145.37;61.38
13486;BME280;6815;59.336;17.998;2023-01-31T06:38:26;52228.88;;;-145.37;61.33
13486;BME280;6815;59.336;17.998;2023-01-31T06:40:52;52258.84;;;-145.37;60.90
13486;BME280;6815;59.336;17.998;2023-01-31T06:43:17;52210.91;;;-145.37;61.21
13486;BME280;6815;59.336;17.998;2023-01-31T06:45:43;52266.81;;;-145.37;61.15
13486;BME280;6815;59.336;17.998;2023-01-31T06:48:09;52256.84;;;-145.37;61.30
13486;BME280;6815;59.336;17.998;2023-01-31T06:50:36;52272.81;;;-145.37;61.10
13486;BME280;6815;59.336;17.998;2023-01-31T06:53:01;52254.84;;;-145.37;61.10
13486;BME280;6815;59.336;17.998;2023-01-31T06:55:27;52246.84;;;-145.37;60.94
13486;BME280;6815;59.336;17.998;2023-01-31T06:57:52;52244.84;;;-145.37;60.71
13486;BME280;6815;59.336;17.998;2023-01-31T07:00:20;52220.91;;;-145.37;61.50
13486;BME280;6815;59.336;17.998;2023-01-31T07:02:46;52208.94;;;-145.37;61.47
13486;BME280;6815;59.336;17.998;2023-01-31T07:05:14;52242.88;;;-145.37;61.20
13486;BME280;6815;59.336;17.998;2023-01-31T07:07:39;52270.81;;;-145.37;61.59
13486;BME280;6815;59.336;17.998;2023-01-31T07:10:06;52208.94;;;-145.37;61.35
13486;BME280;6815;59.336;17.998;2023-01-31T07:12:32;52264.81;;;-145.37;61.73
13486;BME280;6815;59.336;17.998;2023-01-31T07:14:57;52268.81;;;-145.37;61.86
13486;BME280;6815;59.336;17.998;2023-01-31T07:17:23;52252.84;;;-145.37;62.01
13486;BME280;6815;59.336;17.998;2023-01-31T07:19:48;52244.84;;;-145.37;61.95
13486;BME280;6815;59.336;17.998;2023-01-31T07:22:14;52270.81;;;-145.37;61.89
13486;BME280;6815;59.336;17.998;2023-01-31T07:24:40;52224.91;;;-145.37;62.08
13486;BME280;6815;59.336;17.998;2023-01-31T07:27:06;52260.84;;;-145.37;62.13
13486;BME280;6815;59.336;17.998;2023-01-31T07:29:31;52268.81;;;-145.37;61.97
13486;BME280;6815;59.336;17.998;2023-01-31T07:31:57;52258.84;;;-145.37;62.08
13486;BME280;6815;59.336;17.998;2023-01-31T07:34:22;52246.84;;;-145.37;62.15
13486;BME280;6815;59.336;17.998;2023-01-31T07:36:51;52226.91;;;-145.37;62.03
13486;BME280;6815;59.336;17.998;2023-01-31T07:39:16;52256.84;;;-145.37;62.38
13486;BME280;6815;59.336;17.998;2023-01-31T07:41:42;52202.94;;;-145.37;62.60
13486;BME280;6815;59.336;17.998;2023-01-31T07:44:08;52228.88;;;-145.37;62.49
13486;BME280;6815;59.336;17.998;2023-01-31T07:46:37;52276.81;;;-145.37;62.60
13486;BME280;6815;59.336;17.998;2023-01-31T07:49:02;52200.94;;;-145.37;62.57
13486;BME280;6815;59.336;17.998;2023-01-31T07:51:28;52252.84;;;-145.37;62.26
13486;BME280;6815;59.336;17.998;2023-01-31T07:53:55;52218.91;;;-145.37;62.42
13486;BME280;6815;59.336;17.998;2023-01-31T07:56:21;52220.91;;;-145.37;62.12
13486;BME280;6815;59.336;17.998;2023-01-31T07:58:48;52252.84;;;-145.37;62.24
13486;BME280;6815;59.336;17.998;2023-01-31T08:01:19;52256.84;;;-145.37;62.23
13486;BME280;6815;59.336;17.998;2023-01-31T08:04:05;52198.94;;;-145.37;61.50
13486;BME280;6815;59.336;17.998;2023-01-31T08:06:31;52222.91;;;-145.37;61.70
13486;BME280;6815;59.336;17.998;2023-01-31T08:08:57;52266.81;;;-145.37;61.45
13486;BME280;6815;59.336;17.998;2023-01-31T08:11:23;52226.91;;;-145.37;61.48
13486;BME280;6815;59.336;17.998;2023-01-31T08:13:49;52210.91;;;-145.37;61.48
13486;BME280;6815;59.336;17.998;2023-01-31T08:16:14;52236.88;;;-145.37;61.40
13486;BME280;6815;59.336;17.998;2023-01-31T08:18:40;52246.84;;;-145.37;61.37
13486;BME280;6815;59.336;17.998;2023-01-31T08:21:06;52302.75;;;-145.37;61.00
13486;BME280;6815;59.336;17.998;2023-01-31T08:23:32;52250.84;;;-145.37;60.93
13486;BME280;6815;59.336;17.998;2023-01-31T08:26:02;52248.84;;;-145.37;60.99
13486;BME280;6815;59.336;17.998;2023-01-31T08:28:28;52246.84;;;-145.37;60.78
13486;BME280;6815;59.336;17.998;2023-01-31T08:30:54;52234.88;;;-145.37;60.66
13486;BME280;6815;59.336;17.998;2023-01-31T08:33:20;52216.91;;;-145.37;60.67
13486;BME280;6815;59.336;17.998;2023-01-31T08:35:45;52226.91;;;-145.37;60.39
13486;BME280;6815;59.336;17.998;2023-01-31T08:38:11;52222.91;;;-145.37;60.13
13486;BME280;6815;59.336;17.998;2023-01-31T08:40:36;52282.78;;;-145.37;60.32
13486;BME280;6815;59.336;17.998;2023-01-31T08:43:02;52244.84;;;-145.37;60.23
13486;BME280;6815;59.336;17.998;2023-01-31T08:45:28;52242.88;;;-145.37;60.22
13486;BME280;6815;59.336;17.998;2023-01-31T08:47:55;52230.88;;;-145.37;59.88
13486;BME280;6815;59.336;17.998;2023-01-31T08:50:22;52246.84;;;-145.37;59.69
13486;BME280;6815;59.336;17.998;2023-01-31T08:52:52;52228.88;;;-145.37;59.33
13486;BME280;6815;59.336;17.998;2023-01-31T08:55:17;52272.81;;;-145.37;59.01
13486;BME280;6815;59.336;17.998;2023-01-31T08:57:43;52284.78;;;-145.37;58.98
13486;BME280;6815;59.336;17.998;2023-01-31T09:00:10;52248.84;;;-145.37;59.20
13486;BME280;6815;59.336;17.998;2023-01-31T09:02:36;52248.84;;;-145.37;59.23
13486;BME280;6815;59.336;17.998;2023-01-31T09:05:01;52260.84;;;-145.37;58.53
13486;BME280;6815;59.336;17.998;2023-01-31T09:07:26;52234.88;;;-145.37;58.70
13486;BME280;6815;59.336;17.998;2023-01-31T09:09:52;52230.88;;;-145.37;58.54
13486;BME280;6815;59.336;17.998;2023-01-31T09:12:17;52244.84;;;-145.37;58.49
13486;BME280;6815;59.336;17.998;2023-01-31T09:14:43;52234.88;;;-145.37;58.06
13486;BME280;6815;59.336;17.998;2023-01-31T09:17:08;52210.91;;;-145.37;58.23
13486;BME280;6815;59.336;17.998;2023-01-31T09:19:35;52238.88;;;-145.37;58.02
13486;BME280;6815;59.336;17.998;2023-01-31T09:22:01;52226.91;;;-145.37;57.86
13486;BME280;6815;59.336;17.998;2023-01-31T09:24:26;52214.91;;;-145.37;57.81
13486;BME280;6815;59.336;17.998;2023-01-31T09:26:52;52256.84;;;-145.37;57.63
13486;BME280;6815;59.336;17.998;2023-01-31T09:29:18;52218.91;;;-145.37;57.49
13486;BME280;6815;59.336;17.998;2023-01-31T09:31:43;52214.91;;;-145.37;56.99
13486;BME280;6815;59.336;17.998;2023-01-31T09:34:09;52234.88;;;-145.37;56.96
13486;BME280;6815;59.336;17.998;2023-01-31T09:36:35;52240.88;;;-145.37;56.77
13486;BME280;6815;59.336;17.998;2023-01-31T09:39:01;52252.84;;;-145.37;56.83
13486;BME280;6815;59.336;17.998;2023-01-31T09:41:45;52244.84;;;-145.37;56.75
13486;BME280;6815;59.336;17.998;2023-01-31T09:47:01;52248.84;;;-145.37;56.27
13486;BME280;6815;59.336;17.998;2023-01-31T09:49:57;52260.84;;;-145.37;55.43
13486;BME280;6815;59.336;17.998;2023-01-31T09:52:21;52236.88;;;-145.37;55.38
13486;BME280;6815;59.336;17.998;2023-01-31T09:54:47;52280.78;;;-145.37;55.31
13486;BME280;6815;59.336;17.998;2023-01-31T10:05:20;52210.91;;;-145.37;54.77
13486;BME280;6815;59.336;17.998;2023-01-31T10:08:10;52226.91;;;-145.37;54.77
13486;BME280;6815;59.336;17.998;2023-01-31T10:10:44;52224.91;;;-145.37;53.76
13486;BME280;6815;59.336;17.998;2023-01-31T10:13:25;52220.91;;;-145.37;53.80
13486;BME280;6815;59.336;17.998;2023-01-31T10:18:44;52252.84;;;-145.37;53.51
13486;BME280;6815;59.336;17.998;2023-01-31T10:21:19;52234.88;;;-145.37;53.48
13486;BME280;6815;59.336;17.998;2023-01-31T10:23:57;52226.91;;;-145.37;53.24
13486;BME280;6815;59.336;17.998;2023-01-31T10:26:27;52220.91;;;-145.37;53.24
13486;BME280;6815;59.336;17.998;2023-01-31T10:29:31;52220.91;;;-145.37;52.73
13486;BME280;6815;59.336;17.998;2023-01-31T10:32:03;52224.91;;;-145.37;52.49
13486;BME280;6815;59.336;17.998;2023-01-31T10:34:32;52262.81;;;-145.37;52.42
13486;BME280;6815;59.336;17.998;2023-01-31T10:37:05;52226.91;;;-145.37;52.24
13486;BME280;6815;59.336;17.998;2023-01-31T10:39:34;52226.91;;;-145.37;52.48
13486;BME280;6815;59.336;17.998;2023-01-31T10:44:43;52242.88;;;-145.37;52.72
13486;BME280;6815;59.336;17.998;2023-01-31T10:47:13;52212.91;;;-145.37;52.39
13486;BME280;6815;59.336;17.998;2023-01-31T10:49:41;52226.91;;;-145.37;52.30
13486;BME280;6815;59.336;17.998;2023-01-31T10:58:16;52238.88;;;-145.37;51.67
13486;BME280;6815;59.336;17.998;2023-01-31T11:00:42;52228.88;;;-145.37;51.77
13486;BME280;6815;59.336;17.998;2023-01-31T11:03:12;52252.84;;;-145.37;51.61
13486;BME280;6815;59.336;17.998;2023-01-31T11:05:52;52238.88;;;-145.37;51.61
13486;BME280;6815;59.336;17.998;2023-01-31T11:10:53;52226.91;;;-145.37;51.54
13486;BME280;6815;59.336;17.998;2023-01-31T11:13:19;52250.84;;;-145.37;51.95
13486;BME280;6815;59.336;17.998;2023-01-31T11:15:45;52248.84;;;-145.37;51.36
13486;BME280;6815;59.336;17.998;2023-01-31T11:18:46;52276.81;;;-145.37;51.27
13486;BME280;6815;59.336;17.998;2023-01-31T11:21:19;52230.88;;;-145.37;51.13
13486;BME280;6815;59.336;17.998;2023-01-31T11:23:47;52244.84;;;-145.37;51.25
13486;BME280;6815;59.336;17.998;2023-01-31T11:26:24;52228.88;;;-145.37;51.03
13486;BME280;6815;59.336;17.998;2023-01-31T11:28:51;52206.94;;;-145.37;51.15
13486;BME280;6815;59.336;17.998;2023-01-31T11:31:29;52238.88;;;-145.37;51.15
13486;BME280;6815;59.336;17.998;2023-01-31T11:34:03;52200.94;;;-145.37;50.89
13486;BME280;6815;59.336;17.998;2023-01-31T11:36:40;52220.91;;;-145.37;50.69
13486;BME280;6815;59.336;17.998;2023-01-31T11:39:30;52248.84;;;-145.37;50.74
13486;BME280;6815;59.336;17.998;2023-01-31T11:41:56;52256.84;;;-145.37;50.72
13486;BME280;6815;59.336;17.998;2023-01-31T11:44:22;52186.97;;;-145.37;50.39
13486;BME280;6815;59.336;17.998;2023-01-31T11:46:57;52252.84;;;-145.37;50.56
13486;BME280;6815;59.336;17.998;2023-01-31T11:52:01;52242.88;;;-145.37;50.13
13486;BME280;6815;59.336;17.998;2023-01-31T11:54:30;52264.81;;;-145.37;49.87
13486;BME280;6815;59.336;17.998;2023-01-31T11:56:58;52220.91;;;-145.37;49.94
13486;BME280;6815;59.336;17.998;2023-01-31T11:59:27;52210.91;;;-145.37;50.15
13486;BME280;6815;59.336;17.998;2023-01-31T12:01:56;52252.84;;;-145.37;50.03
13486;BME280;6815;59.336;17.998;2023-01-31T12:04:35;52222.91;;;-145.37;49.83
13486;BME280;6815;59.336;17.998;2023-01-31T12:07:19;52262.81;;;-145.37;50.12
13486;BME280;6815;59.336;17.998;2023-01-31T12:09:45;52238.88;;;-145.37;50.03
13486;BME280;6815;59.336;17.998;2023-01-31T12:12:33;52214.91;;;-145.37;49.54
13486;BME280;6815;59.336;17.998;2023-01-31T12:15:05;52222.91;;;-145.37;49.49
13486;BME280;6815;59.336;17.998;2023-01-31T12:17:45;52212.91;;;-145.37;49.47
13486;BME280;6815;59.336;17.998;2023-01-31T12:23:06;52228.88;;;-145.37;49.35
13486;BME280;6815;59.336;17.998;2023-01-31T12:28:50;52220.91;;;-145.37;49.09
13486;BME280;6815;59.336;17.998;2023-01-31T12:31:33;52272.81;;;-145.37;49.22
13486;BME280;6815;59.336;17.998;2023-01-31T12:34:30;52242.88;;;-145.37;49.36
13486;BME280;6815;59.336;17.998;2023-01-31T12:37:24;52254.84;;;-145.37;49.22
13486;BME280;6815;59.336;17.998;2023-01-31T12:40:00;52240.88;;;-145.37;48.92
13486;BME280;6815;59.336;17.998;2023-01-31T12:45:15;52234.88;;;-145.37;48.39
13486;BME280;6815;59.336;17.998;2023-01-31T12:48:09;52218.91;;;-145.37;48.21
13486;BME280;6815;59.336;17.998;2023-01-31T12:53:48;52216.91;;;-145.37;48.09
13486;BME280;6815;59.336;17.998;2023-01-31T13:02:01;52238.88;;;-145.37;48.20
13486;BME280;6815;59.336;17.998;2023-01-31T13:07:27;52234.88;;;-145.37;48.42
13486;BME280;6815;59.336;17.998;2023-01-31T13:09:56;52224.91;;;-145.37;48.45
13486;BME280;6815;59.336;17.998;2023-01-31T13:12:27;52246.84;;;-145.37;47.88
13486;BME280;6815;59.336;17.998;2023-01-31T13:15:09;52234.88;;;-145.37;47.54
13486;BME280;6815;59.336;17.998;2023-01-31T13:17:41;52194.94;;;-145.37;47.25
13486;BME280;6815;59.336;17.998;2023-01-31T13:22:45;52226.91;;;-145.37;47.49
13486;BME280;6815;59.336;17.998;2023-01-31T13:25:19;52250.84;;;-145.37;47.48
13486;BME280;6815;59.336;17.998;2023-01-31T13:27:56;52224.91;;;-145.37;47.42
13486;BME280;6815;59.336;17.998;2023-01-31T13:30:38;52196.94;;;-145.37;47.32
13486;BME280;6815;59.336;17.998;2023-01-31T13:36:05;52228.88;;;-145.37;47.46
13486;BME280;6815;59.336;17.998;2023-01-31T13:38:41;52256.84;;;-145.37;47.52
13486;BME280;6815;59.336;17.998;2023-01-31T13:41:16;52224.91;;;-145.37;47.57
13486;BME280;6815;59.336;17.998;2023-01-31T13:43:43;52240.88;;;-145.37;47.77
13486;BME280;6815;59.336;17.998;2023-01-31T13:46:10;52224.91;;;-145.37;47.89
13486;BME280;6815;59.336;17.998;2023-01-31T13:48:46;52198.94;;;-145.37;47.79
13486;BME280;6815;59.336;17.998;2023-01-31T13:51:28;52266.81;;;-145.37;47.89
13486;BME280;6815;59.336;17.998;2023-01-31T13:56:38;52196.94;;;-145.37;48.39
13486;BME280;6815;59.336;17.998;2023-01-31T13:59:09;52248.84;;;-145.37;48.07
13486;BME280;6815;59.336;17.998;2023-01-31T14:01:46;52268.81;;;-145.37;48.21
13486;BME280;6815;59.336;17.998;2023-01-31T14:09:31;52222.91;;;-145.37;48.17
13486;BME280;6815;59.336;17.998;2023-01-31T14:12:00;52266.81;;;-145.37;48.23
13486;BME280;6815;59.336;17.998;2023-01-31T14:14:36;52246.84;;;-145.37;48.34
13486;BME280;6815;59.336;17.998;2023-01-31T14:22:30;52220.91;;;-145.37;48.61
13486;BME280;6815;59.336;17.998;2023-01-31T14:32:47;52202.94;;;-145.37;48.68
13486;BME280;6815;59.336;17.998;2023-01-31T14:51:05;52264.81;;;-145.37;48.71
13486;BME280;6815;59.336;17.998;2023-01-31T14:56:59;52224.91;;;-145.37;49.00
13486;BME280;6815;59.336;17.998;2023-01-31T14:59:33;52252.84;;;-145.37;49.19
13486;BME280;6815;59.336;17.998;2023-01-31T15:02:19;52224.91;;;-145.37;49.28
13486;BME280;6815;59.336;17.998;2023-01-31T15:05:15;52196.94;;;-145.37;49.10
13486;BME280;6815;59.336;17.998;2023-01-31T15:07:59;52218.91;;;-145.37;49.46